createdAt,value
2022-10-06T00:04:42.281Z,96589.00
2022-10-06T00:10:10.111Z,96594.00
2022-10-06T00:15:38.213Z,96593.00
2022-10-06T00:21:06.341Z,96596.00
2022-10-06T00:26:35.056Z,96602.00
2022-10-06T00:32:03.058Z,96588.00
2022-10-06T00:37:36.277Z,96605.00
2022-10-06T00:43:06.609Z,96599.00
2022-10-06T00:48:34.999Z,96598.00
2022-10-06T00:54:03.817Z,96607.00
2022-10-06T00:59:32.099Z,96606.00
2022-10-06T01:05:03.622Z,96604.00
2022-10-06T01:10:31.362Z,96606.00
2022-10-06T01:16:14.692Z,96611.00
2022-10-06T01:21:47.742Z,96610.00
2022-10-06T01:27:16.711Z,96611.00
2022-10-06T01:32:45.881Z,96615.00
2022-10-06T01:38:13.814Z,96615.00
2022-10-06T01:43:42.267Z,96626.00
2022-10-06T01:49:10.092Z,96622.00
2022-10-06T01:54:38.088Z,96631.00
2022-10-06T02:00:07.099Z,96629.00
2022-10-06T02:05:40.559Z,96631.00
2022-10-06T02:11:10.881Z,96636.00
2022-10-06T02:16:46.630Z,96642.00
2022-10-06T02:22:14.472Z,96645.00
2022-10-06T02:27:42.229Z,96648.00
2022-10-06T02:33:12.259Z,96646.00
2022-10-06T02:38:41.709Z,96652.00
2022-10-06T02:44:10.119Z,96653.00
2022-10-06T02:49:39.712Z,96666.00
2022-10-06T02:55:08.962Z,96670.00
2022-10-06T03:00:38.300Z,96669.00
2022-10-06T03:06:22.024Z,96671.00
2022-10-06T03:11:56.441Z,96686.00
2022-10-06T03:17:33.653Z,96685.00
2022-10-06T03:23:01.577Z,96680.00
2022-10-06T03:28:30.668Z,96684.00
2022-10-06T03:33:59.950Z,96689.00
2022-10-06T03:39:29.386Z,96698.00
2022-10-06T03:44:57.304Z,96704.00
2022-10-06T03:50:25.672Z,96705.00
2022-10-06T03:56:18.571Z,96711.00
2022-10-06T04:01:48.948Z,96716.00
2022-10-06T04:07:29.559Z,96711.00
2022-10-06T04:12:57.526Z,96724.00
2022-10-06T04:18:25.537Z,96729.00
2022-10-06T04:23:55.335Z,96731.00
2022-10-06T04:29:23.539Z,96731.00
2022-10-06T04:34:58.306Z,96733.00
2022-10-06T04:40:27.455Z,96745.00
2022-10-06T04:45:59.880Z,96741.00
2022-10-06T04:51:29.774Z,96760.00
2022-10-06T04:56:59.537Z,96754.00
2022-10-06T05:02:29.626Z,96758.00
2022-10-06T05:07:57.916Z,96764.00
2022-10-06T05:13:26.797Z,96769.00
2022-10-06T05:18:55.131Z,96769.00
2022-10-06T05:24:23.552Z,96774.00
2022-10-06T05:29:51.388Z,96775.00
2022-10-06T05:35:19.712Z,96783.00
2022-10-06T05:40:48.221Z,96790.00
2022-10-06T05:46:21.095Z,96810.00
2022-10-06T05:51:50.352Z,96812.00
2022-10-06T05:57:23.523Z,96819.00
2022-10-06T06:02:51.912Z,96823.00
2022-10-06T06:08:20.289Z,96830.00
2022-10-06T06:13:48.510Z,96839.00
2022-10-06T06:19:16.655Z,96844.00
2022-10-06T06:24:47.094Z,96855.00
2022-10-06T06:30:16.270Z,96858.00
2022-10-06T06:35:44.157Z,96869.00
2022-10-06T06:41:21.266Z,96880.00
2022-10-06T06:46:50.805Z,96891.00
2022-10-06T06:52:20.518Z,96899.00
2022-10-06T06:57:49.629Z,96900.00
2022-10-06T07:03:52.141Z,96907.00
2022-10-06T07:09:10.543Z,96916.00
2022-10-06T07:14:58.949Z,96928.00
2022-10-06T07:20:47.907Z,96928.00
2022-10-06T07:26:16.143Z,96938.00
2022-10-06T07:31:45.063Z,96946.00
2022-10-06T07:37:12.948Z,96956.00
2022-10-06T07:42:48.569Z,96941.00
2022-10-06T07:48:23.521Z,96956.00
2022-10-06T07:53:58.233Z,96957.00
2022-10-06T07:59:39.468Z,96964.00
2022-10-06T08:05:08.345Z,96972.00
2022-10-06T08:10:36.669Z,96976.00
2022-10-06T08:16:06.923Z,96982.00
2022-10-06T08:21:34.661Z,96979.00
2022-10-06T08:27:02.409Z,96993.00
2022-10-06T08:32:30.556Z,96991.00
2022-10-06T08:37:58.501Z,97004.00
2022-10-06T08:43:27.464Z,97007.00
2022-10-06T08:48:58.034Z,96997.00
2022-10-06T08:55:03.734Z,97003.00
2022-10-06T09:00:33.232Z,97004.00
2022-10-06T09:06:48.054Z,97014.00
2022-10-06T09:12:39.898Z,97008.00
2022-10-06T09:18:56.421Z,97006.00
2022-10-06T09:24:49.570Z,97003.00
2022-10-06T09:30:18.191Z,97006.00
2022-10-06T09:36:09.222Z,97009.00
2022-10-06T09:41:44.643Z,97015.00
2022-10-06T09:47:33.323Z,97013.00
2022-10-06T09:53:05.314Z,97006.00
2022-10-06T09:58:37.775Z,97012.00
2022-10-06T10:04:21.362Z,97010.00
2022-10-06T10:09:50.194Z,97008.00
2022-10-06T10:15:20.973Z,97004.00
2022-10-06T10:21:05.185Z,97012.00
2022-10-06T10:27:08.827Z,97011.00
2022-10-06T10:33:07.295Z,97010.00
2022-10-06T10:38:41.400Z,97017.00
2022-10-06T10:44:18.244Z,97008.00
2022-10-06T10:49:58.747Z,97006.00
2022-10-06T10:55:43.608Z,97013.00
2022-10-06T11:01:46.065Z,97018.00
2022-10-06T11:08:03.099Z,97028.00
2022-10-06T11:13:52.491Z,97014.00
2022-10-06T11:19:49.470Z,97013.00
2022-10-06T11:25:39.332Z,97017.00
2022-10-06T11:31:22.693Z,97001.00
2022-10-06T11:37:37.417Z,97003.00
2022-10-06T11:44:05.493Z,96997.00
2022-10-06T11:49:45.261Z,96996.00
2022-10-06T11:55:18.825Z,96983.00
2022-10-06T12:00:49.744Z,96988.00
2022-10-06T12:06:45.795Z,96980.00
2022-10-06T12:12:19.222Z,96981.00
2022-10-06T12:18:00.850Z,96989.00
2022-10-06T12:23:58.620Z,96978.00
2022-10-06T12:29:48.305Z,96973.00
2022-10-06T12:35:30.322Z,96972.00
2022-10-06T12:40:59.444Z,96959.00
2022-10-06T12:46:46.917Z,96962.00
2022-10-06T12:52:50.782Z,96951.00
2022-10-06T12:58:32.582Z,96959.00
2022-10-06T13:04:00.716Z,96952.00
2022-10-06T13:09:28.544Z,96956.00
2022-10-06T13:15:34.685Z,96952.00
2022-10-06T13:21:03.516Z,96946.00
2022-10-06T13:26:34.711Z,96948.00
2022-10-06T13:32:05.096Z,96950.00
2022-10-06T13:37:36.623Z,96949.00
2022-10-06T13:43:04.527Z,96934.00
2022-10-06T13:48:32.368Z,96944.00
2022-10-06T13:54:16.181Z,96936.00
2022-10-06T13:59:43.924Z,96925.00
2022-10-06T14:05:29.448Z,96929.00
2022-10-06T14:11:01.265Z,96919.00
2022-10-06T14:16:30.133Z,96950.00
2022-10-06T14:21:57.886Z,96940.00
2022-10-06T14:27:25.778Z,96944.00
2022-10-06T14:32:53.548Z,96936.00
2022-10-06T14:38:26.011Z,96939.00
2022-10-06T14:44:01.424Z,96921.00
2022-10-06T14:49:29.456Z,96936.00
2022-10-06T14:54:59.529Z,96931.00
2022-10-06T15:00:29.234Z,96922.00
2022-10-06T15:06:27.640Z,96924.00
2022-10-06T15:11:55.624Z,96925.00
2022-10-06T15:17:24.441Z,96923.00
2022-10-06T15:22:52.320Z,96919.00
2022-10-06T15:28:38.403Z,96922.00
2022-10-06T15:34:09.849Z,96921.00
2022-10-06T15:39:38.162Z,96916.00
2022-10-06T15:45:07.727Z,96910.00
2022-10-06T15:50:44.625Z,96915.00
2022-10-06T15:56:12.851Z,96917.00
2022-10-06T16:01:47.158Z,96910.00
2022-10-06T16:07:20.011Z,96917.00
2022-10-06T16:12:50.821Z,96914.00
2022-10-06T16:18:18.451Z,96912.00
2022-10-06T16:23:46.483Z,96921.00
2022-10-06T16:29:21.460Z,96918.00
2022-10-06T16:34:50.714Z,96925.00
2022-10-06T16:40:23.107Z,96926.00
2022-10-06T16:46:03.720Z,96919.00
2022-10-06T16:51:38.181Z,96928.00
2022-10-06T16:57:06.839Z,96929.00
2022-10-06T17:02:34.735Z,96929.00
2022-10-06T17:08:02.612Z,96932.00
2022-10-06T17:13:31.935Z,96938.00
2022-10-06T17:19:00.569Z,96934.00
2022-10-06T17:24:29.668Z,96943.00
2022-10-06T17:29:57.442Z,96941.00
2022-10-06T17:35:25.265Z,96949.00
2022-10-06T17:40:53.047Z,96954.00
2022-10-06T17:46:22.930Z,96952.00
2022-10-06T17:51:53.608Z,96945.00
2022-10-06T17:57:21.490Z,96952.00
2022-10-06T18:02:49.370Z,96956.00
2022-10-06T18:08:17.591Z,96952.00
2022-10-06T18:13:48.024Z,96955.00
2022-10-06T18:19:30.918Z,96950.00
2022-10-06T18:24:59.405Z,96947.00
2022-10-06T18:30:29.360Z,96946.00
2022-10-06T18:36:15.358Z,96942.00
2022-10-06T18:41:50.483Z,96937.00
2022-10-06T18:47:37.166Z,96941.00
2022-10-06T18:53:12.373Z,96943.00
2022-10-06T18:58:44.157Z,96952.00
2022-10-06T19:04:16.552Z,96953.00
2022-10-06T19:09:46.921Z,96941.00
2022-10-06T19:15:19.982Z,96939.00
2022-10-06T19:20:55.192Z,96947.00
2022-10-06T19:26:23.135Z,96943.00
2022-10-06T19:31:58.013Z,96943.00
2022-10-06T19:37:32.503Z,96937.00
2022-10-06T19:43:02.411Z,96936.00
2022-10-06T19:48:31.812Z,96940.00
2022-10-06T19:53:59.873Z,96935.00
2022-10-06T19:59:28.685Z,96944.00
2022-10-06T20:04:57.326Z,96946.00
2022-10-06T20:10:25.829Z,96945.00
2022-10-06T20:15:53.599Z,96940.00
2022-10-06T20:21:24.936Z,96942.00
2022-10-06T20:26:56.219Z,96934.00
2022-10-06T20:32:24.459Z,96936.00
2022-10-06T20:37:52.595Z,96935.00
2022-10-06T20:43:21.386Z,96936.00
2022-10-06T20:48:53.444Z,96930.00
2022-10-06T20:54:28.168Z,96934.00
2022-10-06T20:59:56.636Z,96940.00
2022-10-06T21:05:26.872Z,96920.00
2022-10-06T21:11:04.918Z,96913.00
2022-10-06T21:16:35.552Z,96922.00
2022-10-06T21:22:04.037Z,96918.00
2022-10-06T21:27:34.111Z,96901.00
2022-10-06T21:33:02.577Z,96898.00
2022-10-06T21:38:31.552Z,96899.00
2022-10-06T21:44:04.079Z,96900.00
2022-10-06T21:49:32.510Z,96885.00
2022-10-06T21:55:00.671Z,96886.00
2022-10-06T22:00:28.567Z,96879.00
2022-10-06T22:06:02.506Z,96883.00
2022-10-06T22:11:34.722Z,96874.00
2022-10-06T22:17:04.976Z,96870.00
2022-10-06T22:22:33.205Z,96871.00
2022-10-06T22:28:00.944Z,96856.00
2022-10-06T22:33:29.241Z,96858.00
2022-10-06T22:38:57.725Z,96846.00
2022-10-06T22:44:25.638Z,96843.00
2022-10-06T22:49:53.423Z,96837.00
2022-10-06T22:55:21.135Z,96837.00
2022-10-06T23:00:48.955Z,96838.00
2022-10-06T23:06:18.100Z,96829.00
2022-10-06T23:11:45.769Z,96815.00
2022-10-06T23:17:13.515Z,96821.00
2022-10-06T23:22:41.288Z,96817.00
2022-10-06T23:28:09.154Z,96809.00
2022-10-06T23:33:37.317Z,96801.00
2022-10-06T23:39:05.095Z,96802.00
2022-10-06T23:44:32.862Z,96801.00
2022-10-06T23:50:00.632Z,96799.00
2022-10-06T23:55:28.426Z,96799.00
